sensor_id;sensor_type;location;lat;lon;timestamp;pressure;altitude;pressure_sealevel;temperature;humidity
31299;BME280;17927;52.350;13.402;2022-09-30T00:00:39;100427.03;;;11.26;53.23
31299;BME280;17927;52.350;13.402;2022-09-30T00:03:05;100445.13;;;11.25;53.34
31299;BME280;17927;52.350;13.402;2022-09-30T00:05:30;100439.03;;;11.23;52.99
31299;BME280;17927;52.350;13.402;2022-09-30T00:07:55;100441.19;;;11.20;53.00
31299;BME280;17927;52.350;13.402;2022-09-30T00:10:21;100445.22;;;11.16;53.05
31299;BME280;17927;52.350;13.402;2022-09-30T00:12:46;100439.09;;;11.14;53.07
31299;BME280;17927;52.350;13.402;2022-09-30T00:15:12;100441.97;;;11.12;53.34
31299;BME280;17927;52.350;13.402;2022-09-30T00:17:37;100444.13;;;11.08;52.79
31299;BME280;17927;52.350;13.402;2022-09-30T00:20:03;100447.97;;;11.06;52.98
31299;BME280;17927;52.350;13.402;2022-09-30T00:22:28;100444.59;;;11.04;53.31
31299;BME280;17927;52.350;13.402;2022-09-30T00:24:53;100445.44;;;11.04;53.35
31299;BME280;17927;52.350;13.402;2022-09-30T00:27:22;100448.28;;;11.03;53.56
31299;BME280;17927;52.350;13.402;2022-09-30T00:29:47;100436.06;;;10.99;53.30
31299;BME280;17927;52.350;13.402;2022-09-30T00:32:13;100449.75;;;10.97;53.34
31299;BME280;17927;52.350;13.402;2022-09-30T00:34:38;100450.22;;;10.92;53.27
31299;BME280;17927;52.350;13.402;2022-09-30T00:37:03;100456.91;;;10.88;52.96
31299;BME280;17927;52.350;13.402;2022-09-30T00:39:29;100451.81;;;10.85;53.39
31299;BME280;17927;52.350;13.402;2022-09-30T00:42:00;100447.75;;;10.81;53.44
31299;BME280;17927;52.350;13.402;2022-09-30T00:44:46;100450.88;;;10.76;53.44
31299;BME280;17927;52.350;13.402;2022-09-30T00:52:37;100450.53;;;10.61;53.47
31299;BME280;17927;52.350;13.402;2022-09-30T00:55:06;100457.34;;;10.65;53.63
31299;BME280;17927;52.350;13.402;2022-09-30T00:57:34;100454.19;;;10.70;53.88
31299;BME280;17927;52.350;13.402;2022-09-30T01:00:00;100460.44;;;10.71;53.70
31299;BME280;17927;52.350;13.402;2022-09-30T01:02:26;100453.19;;;10.71;53.57
31299;BME280;17927;52.350;13.402;2022-09-30T01:04:51;100454.03;;;10.72;53.70
31299;BME280;17927;52.350;13.402;2022-09-30T01:07:20;100455.72;;;10.73;53.95
31299;BME280;17927;52.350;13.402;2022-09-30T01:09:48;100462.13;;;10.72;53.81
31299;BME280;17927;52.350;13.402;2022-09-30T01:12:16;100455.03;;;10.71;53.79
31299;BME280;17927;52.350;13.402;2022-09-30T01:14:44;100454.19;;;10.70;53.99
31299;BME280;17927;52.350;13.402;2022-09-30T01:17:26;100460.44;;;10.71;54.20
31299;BME280;17927;52.350;13.402;2022-09-30T01:20:17;100465.00;;;10.70;53.88
31299;BME280;17927;52.350;13.402;2022-09-30T01:29:19;100472.75;;;10.55;54.28
31299;BME280;17927;52.350;13.402;2022-09-30T01:32:00;100476.06;;;10.49;54.29
31299;BME280;17927;52.350;13.402;2022-09-30T01:34:49;100477.34;;;10.45;53.88
31299;BME280;17927;52.350;13.402;2022-09-30T01:37:27;100476.94;;;10.40;53.82
31299;BME280;17927;52.350;13.402;2022-09-30T01:40:02;100478.91;;;10.38;54.05
31299;BME280;17927;52.350;13.402;2022-09-30T01:45:18;100480.34;;;10.32;54.27
31299;BME280;17927;52.350;13.402;2022-09-30T01:47:59;100462.09;;;10.16;54.26
31299;BME280;17927;52.350;13.402;2022-09-30T01:50:55;100472.88;;;10.16;54.17
31299;BME280;17927;52.350;13.402;2022-09-30T01:53:37;100473.88;;;10.15;53.89
31299;BME280;17927;52.350;13.402;2022-09-30T01:56:16;100468.47;;;10.15;53.93
31299;BME280;17927;52.350;13.402;2022-09-30T01:59:05;100461.38;;;10.14;53.95
31299;BME280;17927;52.350;13.402;2022-09-30T02:01:38;100471.47;;;10.12;53.88
31299;BME280;17927;52.350;13.402;2022-09-30T02:04:08;100467.06;;;10.11;53.96
31299;BME280;17927;52.350;13.402;2022-09-30T02:06:46;100469.22;;;10.07;53.79
31299;BME280;17927;52.350;13.402;2022-09-30T02:09:15;100466.66;;;10.05;54.09
31299;BME280;17927;52.350;13.402;2022-09-30T02:11:45;100467.63;;;10.04;53.89
31299;BME280;17927;52.350;13.402;2022-09-30T02:14:25;100459.88;;;10.01;53.83
31299;BME280;17927;52.350;13.402;2022-09-30T02:17:00;100459.28;;;9.98;54.10
31299;BME280;17927;52.350;13.402;2022-09-30T02:19:35;100469.41;;;9.96;54.06
31299;BME280;17927;52.350;13.402;2022-09-30T02:22:07;100473.09;;;9.95;54.02
31299;BME280;17927;52.350;13.402;2022-09-30T02:24:34;100471.94;;;9.97;54.10
31299;BME280;17927;52.350;13.402;2022-09-30T02:27:07;100481.75;;;9.98;54.04
31299;BME280;17927;52.350;13.402;2022-09-30T02:29:39;100492.53;;;9.98;54.25
31299;BME280;17927;52.350;13.402;2022-09-30T02:32:14;100491.00;;;9.96;54.22
31299;BME280;17927;52.350;13.402;2022-09-30T02:34:47;100494.69;;;9.95;53.88
31299;BME280;17927;52.350;13.402;2022-09-30T02:37:25;100495.66;;;9.94;53.97
31299;BME280;17927;52.350;13.402;2022-09-30T02:39:57;100489.41;;;9.93;54.03
31299;BME280;17927;52.350;13.402;2022-09-30T02:42:26;100486.59;;;9.95;54.06
31299;BME280;17927;52.350;13.402;2022-09-30T02:44:55;100486.44;;;9.96;54.15
31299;BME280;17927;52.350;13.402;2022-09-30T02:50:28;100477.50;;;9.96;54.30
31299;BME280;17927;52.350;13.402;2022-09-30T02:56:12;100489.13;;;9.96;54.16
31299;BME280;17927;52.350;13.402;2022-09-30T02:58:41;100490.28;;;9.94;54.42
31299;BME280;17927;52.350;13.402;2022-09-30T03:01:10;100498.22;;;9.95;54.38
31299;BME280;17927;52.350;13.402;2022-09-30T03:03:58;100494.53;;;9.96;54.54
31299;BME280;17927;52.350;13.402;2022-09-30T03:06:25;100504.47;;;9.96;54.76
31299;BME280;17927;52.350;13.402;2022-09-30T03:08:51;100503.59;;;9.95;54.46
31299;BME280;17927;52.350;13.402;2022-09-30T03:11:19;100502.91;;;9.93;54.39
31299;BME280;17927;52.350;13.402;2022-09-30T03:16:43;100509.56;;;9.89;54.46
31299;BME280;17927;52.350;13.402;2022-09-30T03:22:17;100508.47;;;9.82;54.82
31299;BME280;17927;52.350;13.402;2022-09-30T03:27:58;100515.28;;;9.76;54.78
31299;BME280;17927;52.350;13.402;2022-09-30T03:30:31;100519.53;;;9.79;54.89
31299;BME280;17927;52.350;13.402;2022-09-30T03:33:09;100520.25;;;9.81;55.17
31299;BME280;17927;52.350;13.402;2022-09-30T03:35:45;100519.41;;;9.80;54.89
31299;BME280;17927;52.350;13.402;2022-09-30T03:38:45;100524.09;;;9.78;54.82
31299;BME280;17927;52.350;13.402;2022-09-30T03:41:29;100521.97;;;9.72;54.80
31299;BME280;17927;52.350;13.402;2022-09-30T03:44:16;100526.63;;;9.70;54.91
31299;BME280;17927;52.350;13.402;2022-09-30T03:46:48;100528.63;;;9.68;54.99
31299;BME280;17927;52.350;13.402;2022-09-30T03:49:32;100534.03;;;9.68;54.87
31299;BME280;17927;52.350;13.402;2022-09-30T03:52:04;100532.31;;;9.67;54.66
31299;BME280;17927;52.350;13.402;2022-09-30T03:54:30;100534.31;;;9.65;54.77
31299;BME280;17927;52.350;13.402;2022-09-30T03:56:56;100521.84;;;9.64;54.52
31299;BME280;17927;52.350;13.402;2022-09-30T03:59:24;100531.91;;;9.62;54.68
31299;BME280;17927;52.350;13.402;2022-09-30T04:01:50;100534.00;;;9.58;54.62
31299;BME280;17927;52.350;13.402;2022-09-30T04:04:15;100544.25;;;9.54;54.58
31299;BME280;17927;52.350;13.402;2022-09-30T04:06:41;100543.69;;;9.51;54.96
31299;BME280;17927;52.350;13.402;2022-09-30T04:09:06;100543.97;;;9.48;54.87
31299;BME280;17927;52.350;13.402;2022-09-30T04:11:31;100550.22;;;9.48;54.68
31299;BME280;17927;52.350;13.402;2022-09-30T04:13:56;100541.13;;;9.49;54.68
31299;BME280;17927;52.350;13.402;2022-09-30T04:16:22;100544.81;;;9.48;54.85
31299;BME280;17927;52.350;13.402;2022-09-30T04:18:47;100541.41;;;9.46;54.63
31299;BME280;17927;52.350;13.402;2022-09-30T04:21:13;100547.91;;;9.43;54.53
31299;BME280;17927;52.350;13.402;2022-09-30T04:23:40;100545.38;;;9.42;54.85
31299;BME280;17927;52.350;13.402;2022-09-30T04:26:09;100548.50;;;9.37;54.78
31299;BME280;17927;52.350;13.402;2022-09-30T04:28:35;100544.09;;;9.36;54.74
31299;BME280;17927;52.350;13.402;2022-09-30T04:31:01;100554.88;;;9.36;54.90
31299;BME280;17927;52.350;13.402;2022-09-30T04:33:27;100554.16;;;9.34;54.83
31299;BME280;17927;52.350;13.402;2022-09-30T04:35:54;100564.94;;;9.34;54.85
31299;BME280;17927;52.350;13.402;2022-09-30T04:38:20;100563.09;;;9.35;55.00
31299;BME280;17927;52.350;13.402;2022-09-30T04:40:45;100575.56;;;9.36;55.22
31299;BME280;17927;52.350;13.402;2022-09-30T04:43:10;100568.38;;;9.36;55.35
31299;BME280;17927;52.350;13.402;2022-09-30T04:45:35;100573.75;;;9.36;55.37
31299;BME280;17927;52.350;13.402;2022-09-30T04:48:01;100567.38;;;9.37;55.13
31299;BME280;17927;52.350;13.402;2022-09-30T04:50:26;100578.88;;;9.39;55.35
31299;BME280;17927;52.350;13.402;2022-09-30T04:52:51;100579.97;;;9.37;54.97
31299;BME280;17927;52.350;13.402;2022-09-30T04:55:17;100586.50;;;9.34;55.22
31299;BME280;17927;52.350;13.402;2022-09-30T04:57:43;100597.56;;;9.31;55.01
31299;BME280;17927;52.350;13.402;2022-09-30T05:00:08;100596.00;;;9.28;55.59
31299;BME280;17927;52.350;13.402;2022-09-30T05:02:34;100603.38;;;9.26;55.42
31299;BME280;17927;52.350;13.402;2022-09-30T05:04:59;100603.81;;;9.22;55.30
31299;BME280;17927;52.350;13.402;2022-09-30T05:07:25;100614.00;;;9.18;55.08
31299;BME280;17927;52.350;13.402;2022-09-30T05:09:50;100616.81;;;9.17;55.23
31299;BME280;17927;52.350;13.402;2022-09-30T05:12:16;100622.22;;;9.17;55.21
31299;BME280;17927;52.350;13.402;2022-09-30T05:14:42;100627.75;;;9.15;55.01
31299;BME280;17927;52.350;13.402;2022-09-30T05:17:07;100625.19;;;9.13;55.15
31299;BME280;17927;52.350;13.402;2022-09-30T05:19:32;100620.66;;;9.14;55.14
31299;BME280;17927;52.350;13.402;2022-09-30T05:21:57;100623.22;;;9.16;55.52
31299;BME280;17927;52.350;13.402;2022-09-30T05:24:23;100615.84;;;9.18;55.49
31299;BME280;17927;52.350;13.402;2022-09-30T05:26:48;100620.25;;;9.19;55.51
31299;BME280;17927;52.350;13.402;2022-09-30T05:29:14;100619.25;;;9.20;55.46
31299;BME280;17927;52.350;13.402;2022-09-30T05:31:39;100627.78;;;9.25;55.85
31299;BME280;17927;52.350;13.402;2022-09-30T05:34:06;100620.38;;;9.27;56.01
31299;BME280;17927;52.350;13.402;2022-09-30T05:36:31;100625.66;;;9.28;55.89
31299;BME280;17927;52.350;13.402;2022-09-30T05:38:56;100632.75;;;9.29;55.81
31299;BME280;17927;52.350;13.402;2022-09-30T05:41:22;100634.19;;;9.34;56.09
31299;BME280;17927;52.350;13.402;2022-09-30T05:43:48;100634.78;;;9.37;55.86
31299;BME280;17927;52.350;13.402;2022-09-30T05:46:15;100646.13;;;9.41;56.05
31299;BME280;17927;52.350;13.402;2022-09-30T05:48:40;100637.50;;;9.47;55.91
31299;BME280;17927;52.350;13.402;2022-09-30T05:51:05;100642.31;;;9.53;56.13
31299;BME280;17927;52.350;13.402;2022-09-30T05:53:34;100648.00;;;9.60;56.32
31299;BME280;17927;52.350;13.402;2022-09-30T05:56:03;100645.91;;;9.64;56.22
31299;BME280;17927;52.350;13.402;2022-09-30T05:58:28;100649.88;;;9.69;56.21
31299;BME280;17927;52.350;13.402;2022-09-30T06:00:53;100653.59;;;9.78;56.35
31299;BME280;17927;52.350;13.402;2022-09-30T06:03:18;100654.59;;;9.87;56.29
31299;BME280;17927;52.350;13.402;2022-09-30T06:05:44;100654.56;;;9.97;56.58
31299;BME280;17927;52.350;13.402;2022-09-30T06:08:10;100639.38;;;10.05;56.39
31299;BME280;17927;52.350;13.402;2022-09-30T06:10:39;100648.19;;;10.17;56.59
31299;BME280;17927;52.350;13.402;2022-09-30T06:13:05;100657.97;;;10.28;57.01
31299;BME280;17927;52.350;13.402;2022-09-30T06:15:31;100662.25;;;10.41;56.91
31299;BME280;17927;52.350;13.402;2022-09-30T06:17:56;100668.38;;;10.53;57.00
31299;BME280;17927;52.350;13.402;2022-09-30T06:20:22;100663.94;;;10.61;56.81
31299;BME280;17927;52.350;13.402;2022-09-30T06:22:47;100677.44;;;10.71;57.34
31299;BME280;17927;52.350;13.402;2022-09-30T06:25:13;100671.13;;;10.80;57.03
31299;BME280;17927;52.350;13.402;2022-09-30T06:27:39;100679.06;;;10.92;57.14
31299;BME280;17927;52.350;13.402;2022-09-30T06:30:08;100685.16;;;11.04;57.31
31299;BME280;17927;52.350;13.402;2022-09-30T06:32:33;100685.81;;;11.16;57.59
31299;BME280;17927;52.350;13.402;2022-09-30T06:34:59;100690.31;;;11.25;57.49
31299;BME280;17927;52.350;13.402;2022-09-30T06:37:24;100688.59;;;11.34;57.72
31299;BME280;17927;52.350;13.402;2022-09-30T06:39:49;100694.81;;;11.44;57.97
31299;BME280;17927;52.350;13.402;2022-09-30T06:42:18;100695.59;;;11.54;58.16
31299;BME280;17927;52.350;13.402;2022-09-30T06:44:43;100700.81;;;11.66;57.78
31299;BME280;17927;52.350;13.402;2022-09-30T06:47:09;100705.16;;;11.77;57.87
31299;BME280;17927;52.350;13.402;2022-09-30T06:49:34;100695.09;;;11.87;57.78
31299;BME280;17927;52.350;13.402;2022-09-30T06:52:00;100703.91;;;11.99;57.99
31299;BME280;17927;52.350;13.402;2022-09-30T06:54:26;100706.38;;;12.10;57.81
31299;BME280;17927;52.350;13.402;2022-09-30T06:56:54;100705.31;;;12.21;58.05
31299;BME280;17927;52.350;13.402;2022-09-30T06:59:22;100708.78;;;12.31;57.69
31299;BME280;17927;52.350;13.402;2022-09-30T07:01:47;100702.25;;;12.42;57.80
31299;BME280;17927;52.350;13.402;2022-09-30T07:04:12;100706.59;;;12.53;57.71
31299;BME280;17927;52.350;13.402;2022-09-30T07:06:38;100708.34;;;12.62;58.01
31299;BME280;17927;52.350;13.402;2022-09-30T07:09:07;100699.97;;;12.74;57.86
31299;BME280;17927;52.350;13.402;2022-09-30T07:11:33;100709.88;;;12.83;57.76
31299;BME280;17927;52.350;13.402;2022-09-30T07:13:58;100703.47;;;12.92;57.94
31299;BME280;17927;52.350;13.402;2022-09-30T07:16:23;100712.38;;;13.03;57.85
31299;BME280;17927;52.350;13.402;2022-09-30T07:18:51;100713.09;;;13.13;57.71
31299;BME280;17927;52.350;13.402;2022-09-30T07:21:17;100716.72;;;13.22;57.79
31299;BME280;17927;52.350;13.402;2022-09-30T07:23:43;100711.16;;;13.32;57.62
31299;BME280;17927;52.350;13.402;2022-09-30T07:26:16;100724.66;;;13.42;57.48
31299;BME280;17927;52.350;13.402;2022-09-30T07:28:42;100717.88;;;13.46;57.42
31299;BME280;17927;52.350;13.402;2022-09-30T07:31:12;100725.03;;;13.55;57.74
31299;BME280;17927;52.350;13.402;2022-09-30T07:33:37;100730.66;;;13.62;57.63
31299;BME280;17927;52.350;13.402;2022-09-30T07:36:04;100732.22;;;13.73;57.53
31299;BME280;17927;52.350;13.402;2022-09-30T07:38:33;100723.25;;;13.80;57.73
31299;BME280;17927;52.350;13.402;2022-09-30T07:41:03;100720.41;;;13.90;57.58
31299;BME280;17927;52.350;13.402;2022-09-30T07:43:32;100727.72;;;13.98;57.36
31299;BME280;17927;52.350;13.402;2022-09-30T07:48:41;100715.72;;;14.17;57.62
31299;BME280;17927;52.350;13.402;2022-09-30T07:51:24;100715.56;;;14.27;57.59
31299;BME280;17927;52.350;13.402;2022-09-30T07:53:54;100727.09;;;14.37;57.47
31299;BME280;17927;52.350;13.402;2022-09-30T07:56:21;100726.25;;;14.45;57.54
31299;BME280;17927;52.350;13.402;2022-09-30T07:58:47;100733.41;;;14.54;57.43
31299;BME280;17927;52.350;13.402;2022-09-30T08:01:13;100739.84;;;14.61;57.48
31299;BME280;17927;52.350;13.402;2022-09-30T08:03:41;100743.28;;;14.72;57.40
31299;BME280;17927;52.350;13.402;2022-09-30T08:06:11;100751.44;;;14.80;57.46
31299;BME280;17927;52.350;13.402;2022-09-30T08:08:37;100753.31;;;14.88;57.43
31299;BME280;17927;52.350;13.402;2022-09-30T08:11:04;100763.13;;;14.97;57.51
31299;BME280;17927;52.350;13.402;2022-09-30T08:13:30;100767.56;;;15.06;57.55
31299;BME280;17927;52.350;13.402;2022-09-30T08:15:55;100767.53;;;15.15;57.31
31299;BME280;17927;52.350;13.402;2022-09-30T08:18:21;100763.28;;;15.20;57.23
31299;BME280;17927;52.350;13.402;2022-09-30T08:20:46;100766.53;;;15.24;57.07
31299;BME280;17927;52.350;13.402;2022-09-30T08:23:11;100760.53;;;15.29;57.26
31299;BME280;17927;52.350;13.402;2022-09-30T08:25:36;100762.75;;;15.33;57.01
31299;BME280;17927;52.350;13.402;2022-09-30T08:28:02;100750.16;;;15.41;57.23
31299;BME280;17927;52.350;13.402;2022-09-30T08:30:27;100759.28;;;15.48;57.11
31299;BME280;17927;52.350;13.402;2022-09-30T08:32:52;100765.75;;;15.55;57.53
31299;BME280;17927;52.350;13.402;2022-09-30T08:35:18;100776.25;;;15.66;57.71
31299;BME280;17927;52.350;13.402;2022-09-30T08:37:43;100767.00;;;15.76;57.65
31299;BME280;17927;52.350;13.402;2022-09-30T08:40:17;100767.81;;;15.84;57.58
31299;BME280;17927;52.350;13.402;2022-09-30T08:43:14;100767.66;;;15.94;57.30
31299;BME280;17927;52.350;13.402;2022-09-30T08:45:49;100765.25;;;16.00;57.50
31299;BME280;17927;52.350;13.402;2022-09-30T08:48:53;100764.00;;;16.10;57.60
31299;BME280;17927;52.350;13.402;2022-09-30T08:51:29;100779.25;;;16.20;57.83
31299;BME280;17927;52.350;13.402;2022-09-30T08:53:58;100777.34;;;16.28;57.61
31299;BME280;17927;52.350;13.402;2022-09-30T08:56:29;100783.59;;;16.37;57.11
31299;BME280;17927;52.350;13.402;2022-09-30T08:59:23;100784.38;;;16.46;57.06
31299;BME280;17927;52.350;13.402;2022-09-30T09:01:46;100780.75;;;16.54;57.20
31299;BME280;17927;52.350;13.402;2022-09-30T09:04:13;100769.09;;;16.60;56.82
31299;BME280;17927;52.350;13.402;2022-09-30T09:09:46;100780.06;;;16.75;57.00
31299;BME280;17927;52.350;13.402;2022-09-30T09:12:38;100781.88;;;16.83;57.16
31299;BME280;17927;52.350;13.402;2022-09-30T09:15:36;100783.69;;;16.90;57.14
31299;BME280;17927;52.350;13.402;2022-09-30T09:24:00;100777.19;;;17.15;56.61
31299;BME280;17927;52.350;13.402;2022-09-30T09:26:29;100785.28;;;17.23;55.88
31299;BME280;17927;52.350;13.402;2022-09-30T09:29:37;100779.44;;;17.26;55.59
31299;BME280;17927;52.350;13.402;2022-09-30T09:32:17;100779.75;;;17.31;55.26
31299;BME280;17927;52.350;13.402;2022-09-30T09:34:43;100771.81;;;17.37;55.39
31299;BME280;17927;52.350;13.402;2022-09-30T09:37:12;100774.69;;;17.43;55.50
31299;BME280;17927;52.350;13.402;2022-09-30T09:45:02;100765.50;;;17.66;54.92
31299;BME280;17927;52.350;13.402;2022-09-30T09:47:28;100773.81;;;17.73;54.91
31299;BME280;17927;52.350;13.402;2022-09-30T09:49:57;100774.75;;;17.80;54.44
31299;BME280;17927;52.350;13.402;2022-09-30T09:55:07;100772.19;;;17.93;54.02
31299;BME280;17927;52.350;13.402;2022-09-30T09:57:34;100765.97;;;18.00;53.65
31299;BME280;17927;52.350;13.402;2022-09-30T10:00:04;100764.38;;;18.05;53.41
31299;BME280;17927;52.350;13.402;2022-09-30T10:05:34;100756.88;;;18.14;53.44
31299;BME280;17927;52.350;13.402;2022-09-30T10:08:19;100755.06;;;18.21;53.12
31299;BME280;17927;52.350;13.402;2022-09-30T10:10:53;100750.91;;;18.25;52.67
31299;BME280;17927;52.350;13.402;2022-09-30T10:13:29;100750.13;;;18.32;52.76
31299;BME280;17927;52.350;13.402;2022-09-30T10:15:57;100757.34;;;18.39;52.97
31299;BME280;17927;52.350;13.402;2022-09-30T10:18:26;100755.72;;;18.45;52.02
31299;BME280;17927;52.350;13.402;2022-09-30T10:20:58;100745.06;;;18.50;52.10
31299;BME280;17927;52.350;13.402;2022-09-30T10:23:27;100749.09;;;18.54;52.39
31299;BME280;17927;52.350;13.402;2022-09-30T10:26:03;100751.06;;;18.61;52.43
31299;BME280;17927;52.350;13.402;2022-09-30T10:28:33;100747.53;;;18.67;52.29
31299;BME280;17927;52.350;13.402;2022-09-30T10:31:16;100752.88;;;18.75;51.65
31299;BME280;17927;52.350;13.402;2022-09-30T10:33:47;100748.69;;;18.79;51.65
31299;BME280;17927;52.350;13.402;2022-09-30T10:36:18;100746.19;;;18.84;51.56
31299;BME280;17927;52.350;13.402;2022-09-30T10:38:48;100746.66;;;18.88;50.61
31299;BME280;17927;52.350;13.402;2022-09-30T10:41:21;100740.41;;;18.94;50.56
31299;BME280;17927;52.350;13.402;2022-09-30T10:43:49;100740.94;;;18.83;51.62
31299;BME280;17927;52.350;13.402;2022-09-30T10:46:24;100745.00;;;18.94;50.87
31299;BME280;17927;52.350;13.402;2022-09-30T10:48:51;100740.06;;;19.04;50.44
31299;BME280;17927;52.350;13.402;2022-09-30T10:51:28;100741.81;;;19.12;50.58
31299;BME280;17927;52.350;13.402;2022-09-30T10:53:54;100737.03;;;19.21;50.37
31299;BME280;17927;52.350;13.402;2022-09-30T10:56:44;100738.56;;;19.30;50.42
31299;BME280;17927;52.350;13.402;2022-09-30T10:59:18;100737.53;;;19.38;50.00
31299;BME280;17927;52.350;13.402;2022-09-30T11:01:52;100740.31;;;19.44;50.23
31299;BME280;17927;52.350;13.402;2022-09-30T11:07:02;100736.25;;;19.33;49.69
31299;BME280;17927;52.350;13.402;2022-09-30T11:09:37;100738.41;;;19.38;49.58
31299;BME280;17927;52.350;13.402;2022-09-30T11:12:41;100738.22;;;19.46;48.98
31299;BME280;17927;52.350;13.402;2022-09-30T11:15:23;100744.13;;;19.50;48.95
31299;BME280;17927;52.350;13.402;2022-09-30T11:17:56;100734.47;;;19.54;49.05
31299;BME280;17927;52.350;13.402;2022-09-30T11:20:38;100738.94;;;19.62;48.57
31299;BME280;17927;52.350;13.402;2022-09-30T11:23:21;100740.22;;;19.66;48.29
31299;BME280;17927;52.350;13.402;2022-09-30T11:28:22;100735.81;;;19.72;48.25
31299;BME280;17927;52.350;13.402;2022-09-30T11:31:00;100729.31;;;19.80;48.17
31299;BME280;17927;52.350;13.402;2022-09-30T11:33:38;100730.84;;;19.89;48.58
31299;BME280;17927;52.350;13.402;2022-09-30T11:36:36;100723.31;;;20.04;50.06
31299;BME280;17927;52.350;13.402;2022-09-30T11:39:33;100726.53;;;20.21;50.35
31299;BME280;17927;52.350;13.402;2022-09-30T11:42:32;100725.09;;;20.46;49.01
31299;BME280;17927;52.350;13.402;2022-09-30T11:45:08;100724.69;;;20.69;48.55
31299;BME280;17927;52.350;13.402;2022-09-30T11:48:06;100722.38;;;20.93;47.83
31299;BME280;17927;52.350;13.402;2022-09-30T11:50:51;100725.28;;;21.18;48.16
31299;BME280;17927;52.350;13.402;2022-09-30T11:53:41;100724.41;;;21.44;47.99
31299;BME280;17927;52.350;13.402;2022-09-30T11:56:28;100729.00;;;21.71;47.21
31299;BME280;17927;52.350;13.402;2022-09-30T11:58:59;100719.34;;;21.94;47.24
31299;BME280;17927;52.350;13.402;2022-09-30T12:01:32;100712.47;;;22.16;46.46
31299;BME280;17927;52.350;13.402;2022-09-30T12:06:33;100719.78;;;22.61;46.80
31299;BME280;17927;52.350;13.402;2022-09-30T12:09:17;100718.72;;;22.88;45.91
31299;BME280;17927;52.350;13.402;2022-09-30T12:12:06;100713.78;;;23.15;45.28
31299;BME280;17927;52.350;13.402;2022-09-30T12:14:44;100715.75;;;23.33;44.71
31299;BME280;17927;52.350;13.402;2022-09-30T12:17:42;100712.53;;;23.55;44.00
31299;BME280;17927;52.350;13.402;2022-09-30T12:20:21;100717.44;;;23.71;43.16
31299;BME280;17927;52.350;13.402;2022-09-30T12:22:51;100720.63;;;23.87;42.57
31299;BME280;17927;52.350;13.402;2022-09-30T12:25:27;100720.84;;;24.04;41.13
31299;BME280;17927;52.350;13.402;2022-09-30T12:36:55;100727.75;;;24.68;41.39
31299;BME280;17927;52.350;13.402;2022-09-30T12:46:12;100716.84;;;25.44;39.68
31299;BME280;17927;52.350;13.402;2022-09-30T12:48:54;100716.66;;;25.63;39.15
31299;BME280;17927;52.350;13.402;2022-09-30T12:51:31;100720.00;;;25.77;39.15
31299;BME280;17927;52.350;13.402;2022-09-30T12:54:01;100713.13;;;25.79;37.74
31299;BME280;17927;52.350;13.402;2022-09-30T12:56:30;100724.94;;;25.75;37.36
31299;BME280;17927;52.350;13.402;2022-09-30T12:58:56;100712.09;;;25.68;37.71
31299;BME280;17927;52.350;13.402;2022-09-30T13:01:24;100715.28;;;25.77;38.32
31299;BME280;17927;52.350;13.402;2022-09-30T13:04:14;100721.59;;;26.02;38.29
31299;BME280;17927;52.350;13.402;2022-09-30T13:12:38;100714.78;;;26.84;36.54
31299;BME280;17927;52.350;13.402;2022-09-30T13:19:39;100708.69;;;27.44;33.75
31299;BME280;17927;52.350;13.402;2022-09-30T13:25:03;100706.75;;;27.89;33.83
31299;BME280;17927;52.350;13.402;2022-09-30T13:27:44;100716.19;;;28.10;33.26
31299;BME280;17927;52.350;13.402;2022-09-30T13:32:41;100725.28;;;28.33;32.71
31299;BME280;17927;52.350;13.402;2022-09-30T13:38:15;100705.50;;;28.56;31.85
31299;BME280;17927;52.350;13.402;2022-09-30T13:40:56;100716.03;;;28.54;31.67
31299;BME280;17927;52.350;13.402;2022-09-30T13:43:33;100716.13;;;28.32;33.71
31299;BME280;17927;52.350;13.402;2022-09-30T13:46:06;100709.94;;;28.25;31.77
31299;BME280;17927;52.350;13.402;2022-09-30T13:48:34;100710.63;;;28.10;30.84
31299;BME280;17927;52.350;13.402;2022-09-30T13:51:05;100703.09;;;27.83;30.58
31299;BME280;17927;52.350;13.402;2022-09-30T13:53:35;100703.06;;;27.56;30.37
31299;BME280;17927;52.350;13.402;2022-09-30T13:56:07;100705.41;;;27.08;31.85
31299;BME280;17927;52.350;13.402;2022-09-30T13:58:49;100703.38;;;26.81;31.28
31299;BME280;17927;52.350;13.402;2022-09-30T14:04:15;100715.72;;;26.27;31.05
31299;BME280;17927;52.350;13.402;2022-09-30T14:09:59;100704.50;;;25.76;31.77
31299;BME280;17927;52.350;13.402;2022-09-30T14:15:52;100703.34;;;25.60;31.89
31299;BME280;17927;52.350;13.402;2022-09-30T14:18:43;100713.56;;;25.47;31.97
31299;BME280;17927;52.350;13.402;2022-09-30T14:24:16;100717.22;;;25.12;32.22
31299;BME280;17927;52.350;13.402;2022-09-30T14:27:09;100717.47;;;24.99;32.10
31299;BME280;17927;52.350;13.402;2022-09-30T14:30:02;100725.13;;;24.85;32.40
31299;BME280;17927;52.350;13.402;2022-09-30T14:32:55;100722.34;;;24.73;32.62
31299;BME280;17927;52.350;13.402;2022-09-30T14:35:26;100728.44;;;24.63;32.97
31299;BME280;17927;52.350;13.402;2022-09-30T14:38:02;100721.72;;;24.59;33.26
31299;BME280;17927;52.350;13.402;2022-09-30T14:40:31;100719.66;;;24.54;33.02
31299;BME280;17927;52.350;13.402;2022-09-30T14:42:59;100718.69;;;24.48;33.01
31299;BME280;17927;52.350;13.402;2022-09-30T14:45:28;100716.88;;;24.42;33.15
31299;BME280;17927;52.350;13.402;2022-09-30T14:48:00;100726.81;;;24.31;32.85
31299;BME280;17927;52.350;13.402;2022-09-30T14:50:29;100722.47;;;24.24;32.98
31299;BME280;17927;52.350;13.402;2022-09-30T14:52:59;100733.00;;;24.15;33.19